Delray Beach, FL

6:23 AM EDT on August 27, 2014 (GMT -0400)
Fort Lauderdale Executive | Change Station
CLOSE
Current Station
Airport
Location: Fort Lauderdale,
Elevation: 13 ft
Nearby Weather Stations
Active Advisory: Coastal Hazard Statement

Elev 13 ft 26.20 °N, 80.18 °W | Updated 30 minutes ago

Clear
Clear
78 °F
Feels Like 78 °F
N
5
Wind Variable Wind from North

Today
High -- | Low -- °F
--% Chance of Precip.
Yesterday
High -- | Low -- °F
Precip. -- in
6:57 AM 7:45 PM
Waxing Crescent, 3% visible
Pressure 29.90 in
Visibility 10.0 miles
Clouds Clear
Dew Point 72 °F
Humidity 81%
Rainfall 0.00 in
Snow Depth Not available.
UV 0 out of 12
Pollen 5.70 out of 12
Air Quality Not available.
Flu Activity Not available.
METAR KFXE 270953Z 35004KT 10SM CLR 26/22 A2989 RMK AO2 SLP123 T02560222

More Conditions Fewer Conditions

Pressure 29.90 in
Visibility 10.0 miles
Clouds Clear
Dew Point 72 °F
Humidity 81%
Rainfall 0.00 in
Snow Depth Not available.
UV 0 out of 12
Pollen 5.70 out of 12
Air Quality Not available.
Flu Activity Not available.
METAR KFXE 270953Z 35004KT 10SM CLR 26/22 A2989 RMK AO2 SLP123 T02560222

More Conditions Fewer Conditions

10-Day Weather Forecast

Almanac

Astronomy

Aug. 27, 2014 Rise Set
Actual Time 6:57 AM EDT 7:45 PM EDT
Civil Twilight 6:34 AM EDT 8:08 PM EDT
Nautical Twilight 6:06 AM EDT 8:36 PM EDT
Astronomical Twilight 5:37 AM EDT 9:05 PM EDT
Moon 8:37 AM EDT 8:53 PM EDT
Length of Visible Light 13h 34m
Length of Day
12h 47m
Tomorrow will be 1m 28s shorter.
Waxing Crescent, 3% of the Moon is Illuminated
Today
Waxing Crescent
Sep 2
First Quarter
Sep 8
Full
Sep 15
Last Quarter
Sep 24
New

Today's Extremes

State Highs State Lows

Community

WunderPhotos

Upload Photos

1,747,661 photos uploaded!

Nearby

Air Quality

  Air Quality AQ Index Pollutant
Wednesday Good
OZONE
Wednesday Good
PM2.5
Thursday Good
OZONE
Thursday Good
PM2.5

Snow Depth

Station Depth Elevation
No new snow has been reported.

Earthquake Activity

City Distance Mag. Time & Date
No recent earthquake activity has been reported nearby.
Minimum magnitude displayed is 2.5.

Coastal Water Temperatures

Place Temperature
Lake Worth, FL 84.9 °F
Virginia Key, FL 86.0 °F

Nearby Weather Stations